createdAt,value
2022-09-17T00:01:43.971Z,1.02
2022-09-17T00:05:45.652Z,0.90
2022-09-17T00:09:47.314Z,1.52
2022-09-17T00:13:50.824Z,1.45
2022-09-17T00:17:57.896Z,0.98
2022-09-17T00:21:59.511Z,1.42
2022-09-17T00:26:06.043Z,1.50
2022-09-17T00:30:08.437Z,1.90
2022-09-17T00:34:10.162Z,1.25
2022-09-17T00:38:12.012Z,1.42
2022-09-17T00:42:15.853Z,1.90
2022-09-17T00:46:40.161Z,1.60
2022-09-17T00:50:44.538Z,1.42
2022-09-17T00:54:54.167Z,1.30
2022-09-17T00:58:56.345Z,1.65
2022-09-17T01:02:58.631Z,1.92
2022-09-17T01:07:09.500Z,1.70
2022-09-17T01:11:15.531Z,1.40
2022-09-17T01:15:25.950Z,1.80
2022-09-17T01:19:33.553Z,2.05
2022-09-17T01:24:02.906Z,2.22
2022-09-17T01:28:27.134Z,2.17
2022-09-17T01:33:23.558Z,2.40
2022-09-17T01:37:32.560Z,2.00
2022-09-17T01:42:12.715Z,2.12
2022-09-17T01:46:22.088Z,2.62
2022-09-17T01:50:29.459Z,2.30
2022-09-17T01:59:17.787Z,2.37
2022-09-17T02:03:27.969Z,2.40
2022-09-17T02:07:31.924Z,2.97
2022-09-17T02:11:37.018Z,2.72
2022-09-17T02:15:43.458Z,2.85
2022-09-17T02:19:45.685Z,2.57
2022-09-17T02:24:19.604Z,2.00
2022-09-17T02:28:45.061Z,2.40
2022-09-17T02:32:46.772Z,2.60
2022-09-17T02:36:48.615Z,2.60
2022-09-17T02:40:56.494Z,2.70
2022-09-17T02:45:24.354Z,2.83
2022-09-17T02:49:50.004Z,2.20
2022-09-17T02:54:02.589Z,2.50
2022-09-17T02:58:24.663Z,2.50
2022-09-17T03:02:33.718Z,2.40
2022-09-17T03:06:35.443Z,2.40
2022-09-17T03:10:37.556Z,2.53
2022-09-17T03:14:39.159Z,2.28
2022-09-17T03:18:40.787Z,2.12
2022-09-17T03:22:43.005Z,1.90
2022-09-17T03:26:44.812Z,2.15
2022-09-17T03:30:46.785Z,2.15
2022-09-17T03:34:48.407Z,2.00
2022-09-17T03:38:55.414Z,2.00
2022-09-17T03:42:57.106Z,2.17
2022-09-17T03:46:58.962Z,2.15
2022-09-17T03:51:01.428Z,2.10
2022-09-17T03:55:03.528Z,2.45
2022-09-17T03:59:05.158Z,2.10
2022-09-17T04:03:06.894Z,1.75
2022-09-17T04:07:08.683Z,1.95
2022-09-17T04:11:10.449Z,1.65
2022-09-17T04:15:12.300Z,1.45
2022-09-17T04:19:14.002Z,1.77
2022-09-17T04:23:15.663Z,2.47
2022-09-17T04:27:17.294Z,2.08
2022-09-17T04:31:18.964Z,1.98
2022-09-17T04:35:20.655Z,1.75
2022-09-17T04:39:22.278Z,2.95
2022-09-17T04:43:23.985Z,2.72
2022-09-17T04:47:26.088Z,3.05
2022-09-17T04:51:27.757Z,2.03
2022-09-17T04:55:29.422Z,1.70
2022-09-17T04:59:31.027Z,1.77
2022-09-17T05:03:32.683Z,2.10
2022-09-17T05:07:34.449Z,1.48
2022-09-17T05:11:36.191Z,2.87
2022-09-17T05:15:37.807Z,3.42
2022-09-17T05:19:39.446Z,2.15
2022-09-17T05:23:41.031Z,1.30
2022-09-17T05:27:43.322Z,1.62
2022-09-17T05:31:45.104Z,1.50
2022-09-17T05:35:47.138Z,1.73
2022-09-17T05:39:48.809Z,1.40
2022-09-17T05:43:51.129Z,1.25
2022-09-17T05:47:59.934Z,1.67
2022-09-17T05:52:03.453Z,1.90
2022-09-17T05:56:05.322Z,1.42
2022-09-17T06:00:07.734Z,1.87
2022-09-17T06:04:09.588Z,1.48
2022-09-17T06:08:11.254Z,1.12
2022-09-17T06:12:12.890Z,1.60
2022-09-17T06:16:14.569Z,1.50
2022-09-17T06:20:16.329Z,1.08
2022-09-17T06:24:18.016Z,1.87
2022-09-17T06:28:19.812Z,1.67
2022-09-17T06:32:21.447Z,1.60
2022-09-17T06:36:23.064Z,1.92
2022-09-17T06:40:24.844Z,1.73
2022-09-17T06:44:26.556Z,1.37
2022-09-17T06:48:29.857Z,1.75
2022-09-17T06:52:31.524Z,1.50
2022-09-17T06:56:34.307Z,1.98
2022-09-17T07:00:36.341Z,1.58
2022-09-17T07:04:37.983Z,2.10
2022-09-17T07:08:39.737Z,1.60
2022-09-17T07:12:44.493Z,1.40
2022-09-17T07:16:48.303Z,1.45
2022-09-17T07:20:54.120Z,1.52
2022-09-17T07:24:55.759Z,1.73
2022-09-17T07:28:57.416Z,1.90
2022-09-17T07:33:02.234Z,1.62
2022-09-17T07:37:03.954Z,1.58
2022-09-17T07:41:13.199Z,1.55
2022-09-17T07:45:14.905Z,1.55
2022-09-17T07:49:16.485Z,1.48
2022-09-17T07:53:18.579Z,1.50
2022-09-17T07:57:20.151Z,1.52
2022-09-17T08:01:22.579Z,1.75
2022-09-17T08:05:25.140Z,1.50
2022-09-17T08:09:26.747Z,1.17
2022-09-17T08:13:28.808Z,1.12
2022-09-17T08:17:30.585Z,1.33
2022-09-17T08:21:32.206Z,1.05
2022-09-17T08:25:33.827Z,1.30
2022-09-17T08:29:35.592Z,1.23
2022-09-17T08:33:39.426Z,1.10
2022-09-17T08:37:41.010Z,1.15
2022-09-17T08:42:02.897Z,1.02
2022-09-17T08:46:04.612Z,1.35
2022-09-17T08:50:32.585Z,1.48
2022-09-17T08:59:18.415Z,1.30
2022-09-17T09:03:41.383Z,1.08
2022-09-17T09:08:01.504Z,1.85
2022-09-17T09:12:37.532Z,1.42
2022-09-17T09:16:42.479Z,1.60
2022-09-17T09:20:49.796Z,1.10
2022-09-17T09:29:28.782Z,1.40
2022-09-17T09:33:35.821Z,1.20
2022-09-17T09:37:43.022Z,1.58
2022-09-17T09:46:07.039Z,0.80
2022-09-17T09:50:48.322Z,1.02
2022-09-17T09:55:32.144Z,0.70
2022-09-17T09:59:36.103Z,0.90
2022-09-17T10:03:42.011Z,1.00
2022-09-17T10:07:45.279Z,1.23
2022-09-17T10:12:00.796Z,0.82
2022-09-17T10:16:25.348Z,0.80
2022-09-17T10:20:27.086Z,0.93
2022-09-17T10:24:31.935Z,1.12
2022-09-17T10:28:48.829Z,0.70
2022-09-17T10:33:22.781Z,1.00
2022-09-17T10:37:44.332Z,0.60
2022-09-17T10:42:21.958Z,0.93
2022-09-17T10:46:30.432Z,0.45
2022-09-17T10:50:34.388Z,0.90
2022-09-17T10:55:05.062Z,1.35
2022-09-17T10:59:30.268Z,0.52
2022-09-17T11:04:06.181Z,0.62
2022-09-17T11:08:20.756Z,1.00
2022-09-17T11:12:45.815Z,0.90
2022-09-17T11:17:10.920Z,0.98
2022-09-17T11:21:58.954Z,1.00
2022-09-17T11:26:08.241Z,0.70
2022-09-17T11:30:19.582Z,0.43
2022-09-17T11:34:36.728Z,0.70
2022-09-17T11:38:52.578Z,0.73
2022-09-17T11:43:14.566Z,0.70
2022-09-17T11:47:24.315Z,0.70
2022-09-17T11:51:31.903Z,0.50
2022-09-17T11:55:50.819Z,0.57
2022-09-17T12:00:05.630Z,0.52
2022-09-17T12:04:31.459Z,0.60
2022-09-17T12:08:56.806Z,0.50
2022-09-17T12:13:02.872Z,0.45
2022-09-17T12:17:05.975Z,0.40
2022-09-17T12:21:13.670Z,0.45
2022-09-17T12:25:15.974Z,0.30
2022-09-17T12:29:36.296Z,0.35
2022-09-17T12:33:46.003Z,0.80
2022-09-17T12:38:02.697Z,0.22
2022-09-17T12:42:33.470Z,0.52
2022-09-17T12:46:53.768Z,0.28
2022-09-17T12:51:09.437Z,0.30
2022-09-17T12:55:44.179Z,0.40
2022-09-17T13:00:08.195Z,0.70
2022-09-17T13:05:07.029Z,1.62
2022-09-17T13:09:55.742Z,1.08
2022-09-17T13:18:59.280Z,0.30
2022-09-17T13:23:07.727Z,0.40
2022-09-17T13:27:22.412Z,0.47
2022-09-17T13:31:38.945Z,0.47
2022-09-17T13:35:40.482Z,0.70
2022-09-17T13:39:47.754Z,1.40
2022-09-17T13:47:58.913Z,0.50
2022-09-17T13:52:00.599Z,0.98
2022-09-17T13:56:36.567Z,0.65
2022-09-17T14:00:51.933Z,0.80
2022-09-17T14:04:55.953Z,0.90
2022-09-17T14:08:57.859Z,0.70
2022-09-17T14:13:24.524Z,1.00
2022-09-17T14:17:50.650Z,0.70
2022-09-17T14:22:00.346Z,0.75
2022-09-17T14:26:08.305Z,0.50
2022-09-17T14:30:18.365Z,0.40
2022-09-17T14:34:23.595Z,0.80
2022-09-17T14:38:50.684Z,0.68
2022-09-17T14:42:56.762Z,0.90
2022-09-17T14:47:11.614Z,0.93
2022-09-17T14:51:19.605Z,1.10
2022-09-17T14:55:27.886Z,1.20
2022-09-17T14:59:29.465Z,1.92
2022-09-17T15:03:31.246Z,1.35
2022-09-17T15:07:32.879Z,1.15
2022-09-17T15:11:40.963Z,1.45
2022-09-17T15:15:56.365Z,0.93
2022-09-17T15:19:59.231Z,0.90
2022-09-17T15:24:31.532Z,1.12
2022-09-17T15:28:33.098Z,0.90
2022-09-17T15:32:35.319Z,1.00
2022-09-17T15:36:37.452Z,1.00
2022-09-17T15:40:41.159Z,1.12
2022-09-17T15:44:44.400Z,1.08
2022-09-17T15:48:46.001Z,0.98
2022-09-17T15:52:48.570Z,0.80
2022-09-17T15:56:56.646Z,0.70
2022-09-17T16:01:17.038Z,0.50
2022-09-17T16:05:38.740Z,0.80
2022-09-17T16:09:48.699Z,1.45
2022-09-17T16:13:51.955Z,1.02
2022-09-17T16:17:53.648Z,0.90
2022-09-17T16:21:55.248Z,0.73
2022-09-17T16:25:57.696Z,0.65
2022-09-17T16:30:05.576Z,0.60
2022-09-17T16:34:07.156Z,0.60
2022-09-17T16:38:09.590Z,0.50
2022-09-17T16:42:11.247Z,0.60
2022-09-17T16:46:13.210Z,0.60
2022-09-17T16:50:16.610Z,0.90
2022-09-17T16:54:18.311Z,0.65
2022-09-17T16:58:19.928Z,0.75
2022-09-17T17:02:21.711Z,1.17
2022-09-17T17:06:23.307Z,1.00
2022-09-17T17:10:26.432Z,0.80
2022-09-17T17:14:28.111Z,1.00
2022-09-17T17:18:29.929Z,1.00
2022-09-17T17:22:31.548Z,0.80
2022-09-17T17:26:33.797Z,0.93
2022-09-17T17:30:35.513Z,1.52
2022-09-17T17:34:37.274Z,1.12
2022-09-17T17:38:39.159Z,1.10
2022-09-17T17:42:43.817Z,1.30
2022-09-17T17:46:45.576Z,1.10
2022-09-17T17:50:47.184Z,1.33
2022-09-17T17:54:48.855Z,1.20
2022-09-17T17:58:58.360Z,1.17
2022-09-17T18:03:00.111Z,1.30
2022-09-17T18:07:01.848Z,1.95
2022-09-17T18:11:04.577Z,1.67
2022-09-17T18:15:07.196Z,1.60
2022-09-17T18:19:12.287Z,1.52
2022-09-17T18:23:14.167Z,1.75
2022-09-17T18:27:15.841Z,1.60
2022-09-17T18:31:26.775Z,1.37
2022-09-17T18:35:29.188Z,1.60
2022-09-17T18:39:57.490Z,1.60
2022-09-17T18:43:52.517Z,2.22
2022-09-17T18:47:54.183Z,1.87
2022-09-17T18:51:55.831Z,1.85
2022-09-17T18:56:04.610Z,1.73
2022-09-17T19:00:08.834Z,1.92
2022-09-17T19:04:11.130Z,2.08
2022-09-17T19:08:13.080Z,2.55
2022-09-17T19:12:14.668Z,2.37
2022-09-17T19:16:16.981Z,1.80
2022-09-17T19:20:19.627Z,2.45
2022-09-17T19:24:21.311Z,2.45
2022-09-17T19:28:23.248Z,1.80
2022-09-17T19:32:25.206Z,1.73
2022-09-17T19:36:26.931Z,2.10
2022-09-17T19:40:28.557Z,1.58
2022-09-17T19:44:30.916Z,1.70
2022-09-17T19:48:35.662Z,1.33
2022-09-17T19:52:37.287Z,1.27
2022-09-17T19:56:39.034Z,1.10
2022-09-17T20:00:40.695Z,1.35
2022-09-17T20:04:42.385Z,1.15
2022-09-17T20:08:54.690Z,0.98
2022-09-17T20:12:57.301Z,0.50
2022-09-17T20:16:58.965Z,0.60
2022-09-17T20:21:00.641Z,0.50
2022-09-17T20:25:02.247Z,0.55
2022-09-17T20:29:04.347Z,0.65
2022-09-17T20:33:06.002Z,0.70
2022-09-17T20:37:13.516Z,0.70
2022-09-17T20:41:15.951Z,0.60
2022-09-17T20:45:17.538Z,0.50
2022-09-17T20:49:19.150Z,0.40
2022-09-17T20:53:20.811Z,0.40
2022-09-17T20:57:22.485Z,0.47
2022-09-17T21:01:32.109Z,0.52
2022-09-17T21:05:38.127Z,0.70
2022-09-17T21:09:41.883Z,0.57
2022-09-17T21:13:44.591Z,0.40
2022-09-17T21:17:48.041Z,0.60
2022-09-17T21:21:51.612Z,0.50
2022-09-17T21:26:00.887Z,1.00
2022-09-17T21:30:04.845Z,0.60
2022-09-17T21:34:09.714Z,0.80
2022-09-17T21:38:11.632Z,1.25
2022-09-17T21:42:13.247Z,0.60
2022-09-17T21:46:17.869Z,1.00
2022-09-17T21:50:19.462Z,1.20
2022-09-17T21:54:21.059Z,1.40
2022-09-17T21:58:22.815Z,0.80
2022-09-17T22:02:24.558Z,1.02
2022-09-17T22:06:28.663Z,1.25
2022-09-17T22:10:30.241Z,0.80
2022-09-17T22:14:32.123Z,0.95
2022-09-17T22:18:36.334Z,1.20
2022-09-17T22:22:37.935Z,1.30
2022-09-17T22:26:45.786Z,1.40
2022-09-17T22:30:47.496Z,1.30
2022-09-17T22:34:49.580Z,1.23
2022-09-17T22:38:56.409Z,1.12
2022-09-17T22:42:58.098Z,0.80
2022-09-17T22:46:59.835Z,1.50
2022-09-17T22:51:01.504Z,0.98
2022-09-17T22:55:03.279Z,1.02
2022-09-17T22:59:04.971Z,0.80
2022-09-17T23:03:06.625Z,0.90
2022-09-17T23:07:08.639Z,1.00
2022-09-17T23:11:17.145Z,0.88
2022-09-17T23:15:19.340Z,1.00
2022-09-17T23:19:21.247Z,1.08
2022-09-17T23:23:24.723Z,0.98
2022-09-17T23:27:26.501Z,1.17
2022-09-17T23:31:29.704Z,2.22
2022-09-17T23:35:33.215Z,1.30
2022-09-17T23:39:34.831Z,1.10
2022-09-17T23:43:36.550Z,1.12
2022-09-17T23:47:38.184Z,1.15
2022-09-17T23:51:39.911Z,1.37
2022-09-17T23:55:48.458Z,1.10
2022-09-17T23:59:50.074Z,1.52
